createdAt,value
2023-08-14T00:00:10.842Z,100823.00
2023-08-14T00:02:43.836Z,100833.00
2023-08-14T00:05:12.976Z,100827.00
2023-08-14T00:07:41.788Z,100838.00
2023-08-14T00:10:11.203Z,100832.00
2023-08-14T00:12:41.325Z,100836.00
2023-08-14T00:15:11.164Z,100849.00
2023-08-14T00:17:40.722Z,100857.00
2023-08-14T00:20:11.025Z,100853.00
2023-08-14T00:22:39.795Z,100853.00
2023-08-14T00:25:10.462Z,100848.00
2023-08-14T00:27:40.818Z,100849.00
2023-08-14T00:30:10.081Z,100850.00
2023-08-14T00:32:39.084Z,100845.00
2023-08-14T00:35:09.293Z,100853.00
2023-08-14T00:37:46.284Z,100849.00
2023-08-14T00:40:18.131Z,100848.00
2023-08-14T00:42:49.703Z,100851.00
2023-08-14T00:45:21.048Z,100838.00
2023-08-14T00:47:51.697Z,100848.00
2023-08-14T00:50:21.944Z,100836.00
2023-08-14T00:52:56.004Z,100849.00
2023-08-14T00:55:28.069Z,100853.00
2023-08-14T00:57:59.673Z,100848.00
2023-08-14T01:00:29.658Z,100850.00
2023-08-14T01:02:59.073Z,100845.00
2023-08-14T01:05:27.964Z,100846.00
2023-08-14T01:07:57.152Z,100845.00
2023-08-14T01:10:38.045Z,100852.00
2023-08-14T01:13:18.799Z,100856.00
2023-08-14T01:15:53.772Z,100855.00
2023-08-14T01:18:26.666Z,100848.00
2023-08-14T01:21:12.434Z,100847.00
2023-08-14T01:23:55.083Z,100852.00
2023-08-14T01:26:26.090Z,100856.00
2023-08-14T01:28:56.125Z,100844.00
2023-08-14T01:31:24.842Z,100852.00
2023-08-14T01:33:53.553Z,100848.00
2023-08-14T01:36:30.077Z,100846.00
2023-08-14T01:39:09.697Z,100849.00
2023-08-14T01:41:50.113Z,100845.00
2023-08-14T01:44:23.452Z,100863.00
2023-08-14T01:46:55.994Z,100859.00
2023-08-14T01:49:29.177Z,100861.00
2023-08-14T01:52:00.972Z,100866.00
2023-08-14T01:54:29.944Z,100865.00
2023-08-14T01:57:00.321Z,100870.00
2023-08-14T01:59:43.621Z,100865.00
2023-08-14T02:02:15.026Z,100864.00
2023-08-14T02:04:43.948Z,100873.00
2023-08-14T02:07:12.827Z,100874.00
2023-08-14T02:09:41.566Z,100868.00
2023-08-14T02:12:12.002Z,100876.00
2023-08-14T02:14:41.782Z,100871.00
2023-08-14T02:17:10.690Z,100872.00
2023-08-14T02:19:39.541Z,100873.00
2023-08-14T02:22:08.409Z,100865.00
2023-08-14T02:24:37.205Z,100874.00
2023-08-14T02:27:06.672Z,100876.00
2023-08-14T02:29:37.535Z,100874.00
2023-08-14T02:32:07.020Z,100880.00
2023-08-14T02:34:45.029Z,100885.00
2023-08-14T02:37:14.536Z,100889.00
2023-08-14T02:39:44.284Z,100879.00
2023-08-14T02:42:13.659Z,100887.00
2023-08-14T02:44:43.802Z,100888.00
2023-08-14T02:47:12.699Z,100891.00
2023-08-14T02:49:41.570Z,100893.00
2023-08-14T02:52:10.296Z,100889.00
2023-08-14T02:54:39.018Z,100895.00
2023-08-14T02:57:07.926Z,100887.00
2023-08-14T02:59:36.821Z,100891.00
2023-08-14T03:02:07.181Z,100899.00
2023-08-14T03:04:36.971Z,100894.00
2023-08-14T03:07:06.382Z,100901.00
2023-08-14T03:09:36.129Z,100897.00
2023-08-14T03:12:05.641Z,100898.00
2023-08-14T03:14:34.502Z,100899.00
2023-08-14T03:17:03.289Z,100896.00
2023-08-14T03:19:33.504Z,100898.00
2023-08-14T03:22:04.411Z,100893.00
2023-08-14T03:24:33.209Z,100900.00
2023-08-14T03:27:02.052Z,100890.00
2023-08-14T03:29:30.788Z,100890.00
2023-08-14T03:31:59.685Z,100894.00
2023-08-14T03:34:28.512Z,100891.00
2023-08-14T03:36:59.712Z,100906.00
2023-08-14T03:39:28.514Z,100892.00
2023-08-14T03:41:57.750Z,100909.00
2023-08-14T03:44:26.782Z,100901.00
2023-08-14T03:46:55.844Z,100906.00
2023-08-14T03:49:24.621Z,100896.00
2023-08-14T03:51:53.359Z,100901.00
2023-08-14T03:54:24.288Z,100900.00
2023-08-14T03:56:53.088Z,100898.00
2023-08-14T03:59:21.808Z,100906.00
2023-08-14T04:01:50.550Z,100912.00
2023-08-14T04:04:19.315Z,100912.00
2023-08-14T04:06:48.786Z,100908.00
2023-08-14T04:09:17.797Z,100910.00
2023-08-14T04:11:48.126Z,100912.00
2023-08-14T04:14:17.050Z,100920.00
2023-08-14T04:16:46.728Z,100912.00
2023-08-14T04:19:18.416Z,100921.00
2023-08-14T04:21:47.512Z,100926.00
2023-08-14T04:24:16.296Z,100924.00
2023-08-14T04:26:45.115Z,100931.00
2023-08-14T04:29:17.612Z,100919.00
2023-08-14T04:31:47.385Z,100929.00
2023-08-14T04:34:16.070Z,100932.00
2023-08-14T04:36:47.286Z,100924.00
2023-08-14T04:39:16.870Z,100928.00
2023-08-14T04:41:46.095Z,100944.00
2023-08-14T04:44:17.443Z,100939.00
2023-08-14T04:46:58.946Z,100938.00
2023-08-14T04:49:31.023Z,100944.00
2023-08-14T04:51:59.947Z,100943.00
2023-08-14T04:54:29.027Z,100950.00
2023-08-14T04:56:57.796Z,100949.00
2023-08-14T04:59:28.462Z,100950.00
2023-08-14T05:01:57.803Z,100970.00
2023-08-14T05:04:27.705Z,100965.00
2023-08-14T05:06:57.355Z,100950.00
2023-08-14T05:09:27.967Z,100957.00
2023-08-14T05:11:59.707Z,100968.00
2023-08-14T05:14:30.560Z,100957.00
2023-08-14T05:16:59.584Z,100968.00
2023-08-14T05:19:29.308Z,100962.00
2023-08-14T05:21:58.612Z,100964.00
2023-08-14T05:24:27.430Z,100970.00
2023-08-14T05:26:56.130Z,100969.00
2023-08-14T05:29:24.967Z,100963.00
2023-08-14T05:31:55.150Z,100962.00
2023-08-14T05:34:23.919Z,100972.00
2023-08-14T05:36:52.731Z,100969.00
2023-08-14T05:39:21.538Z,100973.00
2023-08-14T05:41:50.869Z,100977.00
2023-08-14T05:44:19.774Z,100986.00
2023-08-14T05:46:49.732Z,100978.00
2023-08-14T05:49:20.434Z,100975.00
2023-08-14T05:51:49.183Z,100973.00
2023-08-14T05:54:18.032Z,100974.00
2023-08-14T05:56:47.359Z,100978.00
2023-08-14T05:59:16.106Z,100981.00
2023-08-14T06:01:45.295Z,100981.00
2023-08-14T06:04:14.158Z,100978.00
2023-08-14T06:06:44.421Z,100987.00
2023-08-14T06:09:24.652Z,100985.00
2023-08-14T06:11:54.038Z,100973.00
2023-08-14T06:14:24.220Z,100998.00
2023-08-14T06:17:07.129Z,100991.00
2023-08-14T06:19:41.420Z,101008.00
2023-08-14T06:22:17.204Z,100993.00
2023-08-14T06:24:47.541Z,100995.00
2023-08-14T06:27:25.620Z,100997.00
2023-08-14T06:29:58.898Z,100983.00
2023-08-14T06:32:28.011Z,101000.00
2023-08-14T06:35:04.214Z,101006.00
2023-08-14T06:37:38.745Z,100997.00
2023-08-14T06:40:16.257Z,101000.00
2023-08-14T06:42:44.936Z,100996.00
2023-08-14T06:45:17.220Z,100985.00
2023-08-14T06:47:49.782Z,100992.00
2023-08-14T06:50:21.727Z,101006.00
2023-08-14T06:52:56.245Z,101001.00
2023-08-14T06:55:30.324Z,101008.00
2023-08-14T06:57:59.102Z,101018.00
2023-08-14T07:00:31.342Z,101010.00
2023-08-14T07:03:00.262Z,101000.00
2023-08-14T07:05:30.188Z,101009.00
2023-08-14T07:08:06.788Z,101015.00
2023-08-14T07:10:39.055Z,101023.00
2023-08-14T07:13:09.304Z,101017.00
2023-08-14T07:15:43.584Z,101027.00
2023-08-14T07:18:13.437Z,101016.00
2023-08-14T07:20:44.581Z,101036.00
2023-08-14T07:23:20.210Z,101041.00
2023-08-14T07:25:49.820Z,101032.00
2023-08-14T07:28:55.222Z,101045.00
2023-08-14T07:31:27.740Z,101051.00
2023-08-14T07:34:03.178Z,101050.00
2023-08-14T07:36:38.115Z,101056.00
2023-08-14T07:39:19.584Z,101054.00
2023-08-14T07:41:53.361Z,101071.00
2023-08-14T07:44:26.213Z,101060.00
2023-08-14T07:46:59.262Z,101044.00
2023-08-14T07:49:30.917Z,101072.00
2023-08-14T07:52:01.454Z,101077.00
2023-08-14T07:54:33.595Z,101082.00
2023-08-14T07:57:07.238Z,101074.00
2023-08-14T07:59:38.831Z,101086.00
2023-08-14T08:02:09.450Z,101091.00
2023-08-14T08:04:41.173Z,101083.00
2023-08-14T08:07:25.657Z,101095.00
2023-08-14T08:10:02.714Z,101109.00
2023-08-14T08:12:37.842Z,101101.00
2023-08-14T08:15:09.276Z,101084.00
2023-08-14T08:17:41.844Z,101103.00
2023-08-14T08:20:31.146Z,101072.00
2023-08-14T08:23:09.446Z,101091.00
2023-08-14T08:25:47.554Z,101092.00
2023-08-14T08:28:20.910Z,101096.00
2023-08-14T08:30:57.122Z,101102.00
2023-08-14T08:33:39.541Z,101092.00
2023-08-14T08:36:08.651Z,101119.00
2023-08-14T08:38:47.141Z,101101.00
2023-08-14T08:41:29.357Z,101091.00
2023-08-14T08:44:08.895Z,101105.00
2023-08-14T08:46:44.316Z,101076.00
2023-08-14T08:49:43.741Z,101102.00
2023-08-14T08:52:16.607Z,101076.00
2023-08-14T08:54:46.199Z,101101.00
2023-08-14T08:57:17.492Z,101109.00
2023-08-14T08:59:47.227Z,101100.00
2023-08-14T09:02:20.674Z,101107.00
2023-08-14T09:04:53.767Z,101108.00
2023-08-14T09:07:24.646Z,101092.00
2023-08-14T09:10:00.148Z,101094.00
2023-08-14T09:12:32.633Z,101102.00
2023-08-14T09:15:07.210Z,101100.00
2023-08-14T09:17:38.938Z,101094.00
2023-08-14T09:20:24.407Z,101102.00
2023-08-14T09:23:02.100Z,101094.00
2023-08-14T09:25:33.935Z,101092.00
2023-08-14T09:28:08.556Z,101101.00
2023-08-14T09:30:39.723Z,101102.00
2023-08-14T09:33:11.018Z,101106.00
2023-08-14T09:35:41.692Z,101096.00
2023-08-14T09:38:14.126Z,101113.00
2023-08-14T09:40:45.527Z,101101.00
2023-08-14T09:43:20.188Z,101111.00
2023-08-14T09:46:03.958Z,101110.00
2023-08-14T09:48:43.789Z,101093.00
2023-08-14T09:51:14.862Z,101109.00
2023-08-14T09:53:52.813Z,101105.00
2023-08-14T09:56:27.600Z,101113.00
2023-08-14T09:59:29.757Z,101113.00
2023-08-14T10:02:05.622Z,101109.00
2023-08-14T10:04:41.337Z,101114.00
2023-08-14T10:07:12.526Z,101125.00
2023-08-14T10:09:48.351Z,101129.00
2023-08-14T10:12:21.945Z,101122.00
2023-08-14T10:15:08.043Z,101132.00
2023-08-14T10:17:47.712Z,101139.00
2023-08-14T10:20:24.694Z,101129.00
2023-08-14T10:22:55.018Z,101126.00
2023-08-14T10:25:25.149Z,101139.00
2023-08-14T10:27:55.445Z,101137.00
2023-08-14T10:30:47.083Z,101134.00
2023-08-14T10:33:18.791Z,101132.00
2023-08-14T10:35:52.331Z,101126.00
2023-08-14T10:38:25.196Z,101156.00
2023-08-14T10:41:10.519Z,101156.00
2023-08-14T10:43:43.468Z,101192.00
2023-08-14T10:46:19.819Z,101176.00
2023-08-14T10:48:51.911Z,101158.00
2023-08-14T10:52:02.965Z,101165.00
2023-08-14T10:54:39.520Z,101178.00
2023-08-14T10:57:14.258Z,101187.00
2023-08-14T10:59:43.601Z,101184.00
2023-08-14T11:02:21.021Z,101180.00
2023-08-14T11:05:14.141Z,101171.00
2023-08-14T11:07:45.641Z,101180.00
2023-08-14T11:10:17.862Z,101191.00
2023-08-14T11:12:47.700Z,101190.00
2023-08-14T11:15:16.734Z,101180.00
2023-08-14T11:17:50.439Z,101200.00
2023-08-14T11:20:37.017Z,101203.00
2023-08-14T11:23:07.242Z,101197.00
2023-08-14T11:25:36.398Z,101173.00
2023-08-14T11:28:07.595Z,101198.00
2023-08-14T11:30:38.499Z,101205.00
2023-08-14T11:33:08.734Z,101208.00
2023-08-14T11:35:37.816Z,101219.00
2023-08-14T11:38:08.813Z,101202.00
2023-08-14T11:40:41.445Z,101218.00
2023-08-14T11:43:11.044Z,101199.00
2023-08-14T11:45:40.253Z,101210.00
2023-08-14T11:48:12.888Z,101207.00
2023-08-14T11:50:42.535Z,101216.00
2023-08-14T11:53:12.954Z,101215.00
2023-08-14T11:55:42.764Z,101215.00
2023-08-14T11:58:14.928Z,101222.00
2023-08-14T12:00:44.843Z,101221.00
2023-08-14T12:03:19.090Z,101222.00
2023-08-14T12:05:49.718Z,101224.00
2023-08-14T12:08:24.587Z,101230.00
2023-08-14T12:10:53.348Z,101230.00
2023-08-14T12:13:30.218Z,101213.00
2023-08-14T12:16:09.134Z,101216.00
2023-08-14T12:18:46.486Z,101229.00
2023-08-14T12:21:15.697Z,101240.00
2023-08-14T12:23:48.861Z,101235.00
2023-08-14T12:26:18.109Z,101213.00
2023-08-14T12:28:47.821Z,101231.00
2023-08-14T12:31:16.670Z,101212.00
2023-08-14T12:33:51.073Z,101232.00
2023-08-14T12:36:25.295Z,101239.00
2023-08-14T12:38:54.092Z,101247.00
2023-08-14T12:41:22.822Z,101242.00
2023-08-14T12:43:52.096Z,101231.00
2023-08-14T12:46:23.192Z,101239.00
2023-08-14T12:48:53.802Z,101245.00
2023-08-14T12:51:22.665Z,101256.00
2023-08-14T12:53:55.499Z,101241.00
2023-08-14T12:56:25.019Z,101261.00
2023-08-14T12:58:55.984Z,101259.00
2023-08-14T13:01:25.445Z,101271.00
2023-08-14T13:03:58.730Z,101254.00
2023-08-14T13:06:30.445Z,101241.00
2023-08-14T13:08:59.590Z,101256.00
2023-08-14T13:11:28.821Z,101258.00
2023-08-14T13:13:58.032Z,101265.00
2023-08-14T13:16:28.015Z,101244.00
2023-08-14T13:18:59.022Z,101284.00
2023-08-14T13:21:27.827Z,101253.00
2023-08-14T13:23:56.891Z,101281.00
2023-08-14T13:26:28.676Z,101258.00
2023-08-14T13:28:58.263Z,101255.00
2023-08-14T13:31:28.895Z,101259.00
2023-08-14T13:34:02.999Z,101242.00
2023-08-14T13:36:41.390Z,101254.00
2023-08-14T13:39:10.690Z,101270.00
2023-08-14T13:41:42.550Z,101274.00
2023-08-14T13:44:13.367Z,101252.00
2023-08-14T13:46:43.971Z,101274.00
2023-08-14T13:49:14.878Z,101266.00
2023-08-14T13:51:48.288Z,101253.00
2023-08-14T13:54:43.700Z,101282.00
2023-08-14T13:57:13.278Z,101273.00
2023-08-14T14:00:14.905Z,101275.00
2023-08-14T14:02:47.190Z,101279.00
2023-08-14T14:05:21.534Z,101288.00
2023-08-14T14:07:55.154Z,101288.00
2023-08-14T14:10:35.831Z,101290.00
2023-08-14T14:13:05.736Z,101288.00
2023-08-14T14:15:39.403Z,101296.00
2023-08-14T14:18:14.324Z,101281.00
2023-08-14T14:20:46.695Z,101289.00
2023-08-14T14:23:17.139Z,101287.00
2023-08-14T14:25:53.566Z,101291.00
2023-08-14T14:28:23.725Z,101288.00
2023-08-14T14:31:03.519Z,101309.00
2023-08-14T14:33:32.253Z,101299.00
2023-08-14T14:36:02.330Z,101304.00
2023-08-14T14:38:31.069Z,101312.00
2023-08-14T14:41:04.093Z,101312.00
2023-08-14T14:43:34.252Z,101320.00
2023-08-14T14:46:06.762Z,101315.00
2023-08-14T14:48:37.674Z,101311.00
2023-08-14T14:51:09.209Z,101321.00
2023-08-14T14:53:41.822Z,101325.00
2023-08-14T14:56:11.119Z,101325.00
2023-08-14T14:58:39.790Z,101325.00
2023-08-14T15:01:09.059Z,101310.00
2023-08-14T15:03:39.333Z,101307.00
2023-08-14T15:06:10.628Z,101294.00
2023-08-14T15:08:40.896Z,101322.00
2023-08-14T15:11:10.096Z,101313.00
2023-08-14T15:13:39.374Z,101309.00
2023-08-14T15:16:08.182Z,101321.00
2023-08-14T15:18:36.941Z,101313.00
2023-08-14T15:21:06.304Z,101306.00
2023-08-14T15:23:49.650Z,101321.00
2023-08-14T15:26:23.592Z,101308.00
2023-08-14T15:28:52.786Z,101309.00
2023-08-14T15:31:21.932Z,101313.00
2023-08-14T15:33:52.925Z,101307.00
2023-08-14T15:36:23.785Z,101315.00
2023-08-14T15:38:55.992Z,101308.00
2023-08-14T15:41:25.126Z,101314.00
2023-08-14T15:43:53.988Z,101317.00
2023-08-14T15:46:32.127Z,101317.00
2023-08-14T15:49:02.587Z,101321.00
2023-08-14T15:51:32.984Z,101323.00
2023-08-14T15:54:03.592Z,101324.00
2023-08-14T15:56:33.697Z,101320.00
2023-08-14T15:59:04.804Z,101322.00
2023-08-14T16:01:37.221Z,101321.00
2023-08-14T16:04:20.345Z,101330.00
2023-08-14T16:06:51.310Z,101325.00
2023-08-14T16:09:25.428Z,101331.00
2023-08-14T16:11:54.476Z,101332.00
2023-08-14T16:14:23.223Z,101330.00
2023-08-14T16:16:51.966Z,101336.00
2023-08-14T16:19:23.817Z,101328.00
2023-08-14T16:21:53.717Z,101350.00
2023-08-14T16:24:24.495Z,101342.00
2023-08-14T16:26:58.973Z,101340.00
2023-08-14T16:29:29.047Z,101347.00
2023-08-14T16:32:00.124Z,101345.00
2023-08-14T16:34:29.032Z,101339.00
2023-08-14T16:36:59.478Z,101343.00
2023-08-14T16:42:20.700Z,101346.00
2023-08-14T16:44:50.237Z,101346.00
2023-08-14T16:47:21.914Z,101341.00
2023-08-14T16:49:53.245Z,101347.00
2023-08-14T16:52:29.196Z,101351.00
2023-08-14T16:55:01.306Z,101351.00
2023-08-14T16:57:31.376Z,101356.00
2023-08-14T17:00:00.259Z,101356.00
2023-08-14T17:02:30.226Z,101359.00
2023-08-14T17:05:02.818Z,101358.00
2023-08-14T17:07:33.449Z,101364.00
2023-08-14T17:10:03.940Z,101360.00
2023-08-14T17:12:32.916Z,101368.00
2023-08-14T17:15:01.715Z,101361.00
2023-08-14T17:17:33.375Z,101365.00
2023-08-14T17:20:03.385Z,101369.00
2023-08-14T17:22:34.805Z,101367.00
2023-08-14T17:25:06.141Z,101366.00
2023-08-14T17:27:34.898Z,101361.00
2023-08-14T17:30:03.771Z,101370.00
2023-08-14T17:32:33.811Z,101366.00
2023-08-14T17:35:02.856Z,101372.00
2023-08-14T17:37:33.921Z,101376.00
2023-08-14T17:40:04.934Z,101381.00
2023-08-14T17:42:37.296Z,101382.00
2023-08-14T17:45:07.564Z,101376.00
2023-08-14T17:47:36.761Z,101385.00
2023-08-14T17:50:07.335Z,101377.00
2023-08-14T17:52:38.411Z,101383.00
2023-08-14T17:55:10.026Z,101384.00
2023-08-14T17:57:39.812Z,101393.00
2023-08-14T18:00:11.588Z,101400.00
2023-08-14T18:02:40.654Z,101393.00
2023-08-14T18:05:10.337Z,101402.00
2023-08-14T18:07:41.457Z,101398.00
2023-08-14T18:10:22.501Z,101392.00
2023-08-14T18:12:53.333Z,101396.00
2023-08-14T18:15:25.942Z,101395.00
2023-08-14T18:17:59.458Z,101396.00
2023-08-14T18:20:29.122Z,101393.00
2023-08-14T18:23:04.745Z,101401.00
2023-08-14T18:25:35.381Z,101403.00
2023-08-14T18:28:09.222Z,101402.00
2023-08-14T18:30:43.489Z,101411.00
2023-08-14T18:33:16.075Z,101408.00
2023-08-14T18:35:48.340Z,101409.00
2023-08-14T18:38:19.565Z,101413.00
2023-08-14T18:40:53.790Z,101408.00
2023-08-14T18:43:22.924Z,101418.00
2023-08-14T18:45:56.700Z,101407.00
2023-08-14T18:48:34.789Z,101412.00
2023-08-14T18:51:06.662Z,101416.00
2023-08-14T18:53:40.265Z,101417.00
2023-08-14T18:56:14.260Z,101416.00
2023-08-14T18:58:47.528Z,101417.00
2023-08-14T19:01:18.136Z,101424.00
2023-08-14T19:03:51.117Z,101417.00
2023-08-14T19:06:22.630Z,101425.00
2023-08-14T19:08:56.484Z,101415.00
2023-08-14T19:11:26.770Z,101416.00
2023-08-14T19:13:57.085Z,101419.00
2023-08-14T19:16:26.167Z,101413.00
2023-08-14T19:18:57.403Z,101422.00
2023-08-14T19:21:26.152Z,101422.00
2023-08-14T19:23:55.987Z,101420.00
2023-08-14T19:26:28.447Z,101425.00
2023-08-14T19:29:01.000Z,101423.00
2023-08-14T19:31:32.114Z,101420.00
2023-08-14T19:34:02.882Z,101426.00
2023-08-14T19:36:42.436Z,101417.00
2023-08-14T19:39:11.199Z,101420.00
2023-08-14T19:41:42.144Z,101430.00
2023-08-14T19:44:11.237Z,101430.00
2023-08-14T19:46:41.793Z,101430.00
2023-08-14T19:49:10.743Z,101424.00
2023-08-14T19:51:39.477Z,101433.00
2023-08-14T19:54:08.531Z,101430.00
2023-08-14T19:56:42.437Z,101433.00
2023-08-14T19:59:14.858Z,101429.00
2023-08-14T20:01:44.544Z,101433.00
2023-08-14T20:04:16.150Z,101435.00
2023-08-14T20:06:49.262Z,101434.00
2023-08-14T20:09:18.476Z,101442.00
2023-08-14T20:11:49.425Z,101453.00
2023-08-14T20:14:19.651Z,101443.00
2023-08-14T20:16:52.370Z,101453.00
2023-08-14T20:19:27.941Z,101443.00
2023-08-14T20:21:56.602Z,101455.00
2023-08-14T20:24:32.897Z,101455.00
2023-08-14T20:27:05.018Z,101453.00
2023-08-14T20:29:37.702Z,101460.00
2023-08-14T20:32:14.159Z,101460.00
2023-08-14T20:34:49.136Z,101459.00
2023-08-14T20:37:19.421Z,101454.00
2023-08-14T20:39:56.209Z,101465.00
2023-08-14T20:45:23.810Z,101453.00
2023-08-14T20:47:53.828Z,101454.00
2023-08-14T20:50:22.676Z,101459.00
2023-08-14T20:52:52.824Z,101458.00
2023-08-14T20:55:24.642Z,101462.00
2023-08-14T20:57:55.380Z,101472.00
2023-08-14T21:00:25.695Z,101468.00
2023-08-14T21:02:57.455Z,101482.00
2023-08-14T21:05:26.853Z,101481.00
2023-08-14T21:07:55.727Z,101481.00
2023-08-14T21:10:24.486Z,101481.00
2023-08-14T21:12:54.617Z,101476.00
2023-08-14T21:15:25.201Z,101480.00
2023-08-14T21:17:53.992Z,101477.00
2023-08-14T21:20:22.762Z,101478.00
2023-08-14T21:22:51.728Z,101480.00
2023-08-14T21:25:20.777Z,101481.00
2023-08-14T21:27:50.172Z,101482.00
2023-08-14T21:30:21.914Z,101483.00
2023-08-14T21:32:52.062Z,101485.00
2023-08-14T21:35:20.972Z,101480.00
2023-08-14T21:37:49.779Z,101486.00
2023-08-14T21:40:18.867Z,101490.00
2023-08-14T21:42:48.441Z,101491.00
2023-08-14T21:45:18.820Z,101500.00
2023-08-14T21:47:49.022Z,101500.00
2023-08-14T21:50:18.040Z,101501.00
2023-08-14T21:52:46.794Z,101495.00
2023-08-14T21:55:15.947Z,101496.00
2023-08-14T21:57:44.682Z,101496.00
2023-08-14T22:00:15.626Z,101500.00
2023-08-14T22:02:45.166Z,101498.00
2023-08-14T22:05:15.476Z,101495.00
2023-08-14T22:07:44.198Z,101497.00
2023-08-14T22:10:13.535Z,101507.00
2023-08-14T22:12:45.804Z,101509.00
2023-08-14T22:15:14.899Z,101507.00
2023-08-14T22:17:43.988Z,101510.00
2023-08-14T22:20:15.578Z,101507.00
2023-08-14T22:22:44.265Z,101517.00
2023-08-14T22:25:13.227Z,101512.00
2023-08-14T22:27:42.528Z,101514.00
2023-08-14T22:30:12.781Z,101529.00
2023-08-14T22:32:41.613Z,101526.00
2023-08-14T22:35:10.730Z,101522.00
2023-08-14T22:37:40.866Z,101520.00
2023-08-14T22:40:11.212Z,101519.00
2023-08-14T22:42:40.051Z,101515.00
2023-08-14T22:45:12.661Z,101520.00
2023-08-14T22:47:41.321Z,101527.00
2023-08-14T22:50:12.100Z,101524.00
2023-08-14T22:52:42.239Z,101524.00
2023-08-14T22:55:11.695Z,101519.00
2023-08-14T22:57:40.366Z,101528.00
2023-08-14T23:00:11.253Z,101525.00
2023-08-14T23:02:40.235Z,101533.00
2023-08-14T23:05:10.582Z,101529.00
2023-08-14T23:07:39.335Z,101528.00
2023-08-14T23:10:10.845Z,101525.00
2023-08-14T23:12:39.762Z,101535.00
2023-08-14T23:15:09.998Z,101530.00
2023-08-14T23:17:39.832Z,101531.00
2023-08-14T23:20:10.597Z,101527.00
2023-08-14T23:22:39.497Z,101534.00
2023-08-14T23:25:12.082Z,101539.00
2023-08-14T23:27:40.965Z,101542.00
2023-08-14T23:30:10.562Z,101542.00
2023-08-14T23:32:39.421Z,101549.00
2023-08-14T23:35:10.251Z,101542.00
2023-08-14T23:37:38.978Z,101546.00
2023-08-14T23:40:11.034Z,101545.00
2023-08-14T23:42:40.965Z,101542.00
2023-08-14T23:45:10.477Z,101544.00
2023-08-14T23:47:39.193Z,101546.00
2023-08-14T23:50:09.293Z,101540.00
2023-08-14T23:52:38.027Z,101542.00
2023-08-14T23:55:10.415Z,101536.00
2023-08-14T23:57:39.186Z,101533.00
